createdAt,value
2022-10-16T00:00:55.151Z,9.82
2022-10-16T00:03:25.383Z,7.68
2022-10-16T00:05:54.850Z,3.38
2022-10-16T00:08:21.615Z,5.05
2022-10-16T00:10:48.315Z,5.20
2022-10-16T00:13:15.164Z,5.97
2022-10-16T00:15:44.262Z,6.57
2022-10-16T00:18:11.389Z,4.65
2022-10-16T00:20:38.234Z,5.60
2022-10-16T00:23:06.275Z,8.23
2022-10-16T00:25:33.983Z,5.10
2022-10-16T00:28:02.054Z,7.10
2022-10-16T00:30:29.143Z,8.18
2022-10-16T00:32:56.514Z,6.38
2022-10-16T00:35:23.366Z,6.78
2022-10-16T00:37:50.569Z,31.38
2022-10-16T00:40:17.655Z,8.57
2022-10-16T00:42:44.367Z,11.70
2022-10-16T00:45:11.904Z,128.13
2022-10-16T00:47:42.585Z,107.25
2022-10-16T00:50:14.819Z,51.75
2022-10-16T00:52:46.841Z,4.85
2022-10-16T00:55:14.090Z,16.00
2022-10-16T00:57:41.055Z,55.10
2022-10-16T01:00:10.688Z,5.85
2022-10-16T01:02:37.709Z,5.45
2022-10-16T01:05:05.805Z,6.10
2022-10-16T01:07:58.207Z,5.95
2022-10-16T01:10:48.502Z,89.50
2022-10-16T01:13:50.694Z,118.18
2022-10-16T01:16:34.777Z,5.70
2022-10-16T01:19:13.264Z,6.03
2022-10-16T01:21:45.250Z,5.57
2022-10-16T01:24:38.990Z,7.40
2022-10-16T01:27:22.256Z,6.68
2022-10-16T01:30:01.095Z,5.80
2022-10-16T01:33:06.100Z,7.38
2022-10-16T01:35:39.918Z,6.80
2022-10-16T01:38:17.326Z,5.07
2022-10-16T01:40:50.749Z,7.05
2022-10-16T01:43:22.164Z,5.15
2022-10-16T01:45:49.569Z,4.30
2022-10-16T01:48:19.942Z,4.68
2022-10-16T01:51:05.055Z,5.53
2022-10-16T01:53:32.826Z,4.63
2022-10-16T01:56:00.594Z,4.07
2022-10-16T01:58:31.937Z,5.78
2022-10-16T02:00:58.829Z,3.97
2022-10-16T02:03:25.649Z,7.50
2022-10-16T02:05:57.935Z,5.60
2022-10-16T02:08:29.258Z,5.15
2022-10-16T02:10:57.418Z,4.22
2022-10-16T02:13:46.366Z,5.75
2022-10-16T02:16:15.195Z,3.83
2022-10-16T02:18:44.635Z,4.65
2022-10-16T02:21:26.624Z,3.50
2022-10-16T02:24:07.406Z,3.90
2022-10-16T02:26:46.259Z,3.58
2022-10-16T02:29:17.822Z,4.72
2022-10-16T02:31:49.187Z,3.88
2022-10-16T02:34:19.005Z,4.30
2022-10-16T02:36:49.394Z,7.10
2022-10-16T02:39:17.566Z,6.15
2022-10-16T02:41:44.386Z,4.60
2022-10-16T02:44:11.147Z,5.57
2022-10-16T02:46:37.847Z,4.63
2022-10-16T02:49:04.627Z,4.25
2022-10-16T02:51:31.476Z,4.57
2022-10-16T02:53:58.177Z,6.63
2022-10-16T02:56:25.170Z,5.20
2022-10-16T02:58:51.898Z,5.55
2022-10-16T03:01:18.583Z,6.82
2022-10-16T03:03:45.324Z,5.70
2022-10-16T03:06:12.059Z,5.93
2022-10-16T03:08:38.794Z,4.70
2022-10-16T03:11:05.617Z,4.85
2022-10-16T03:13:32.311Z,4.80
2022-10-16T03:15:59.016Z,5.68
2022-10-16T03:18:25.814Z,4.68
2022-10-16T03:20:52.705Z,5.13
2022-10-16T03:23:19.389Z,6.57
2022-10-16T03:25:48.243Z,5.55
2022-10-16T03:28:15.338Z,4.45
2022-10-16T03:30:42.025Z,4.93
2022-10-16T03:33:09.909Z,4.57
2022-10-16T03:35:36.730Z,5.22
2022-10-16T03:38:03.785Z,4.18
2022-10-16T03:40:32.596Z,4.40
2022-10-16T03:42:59.777Z,10.48
2022-10-16T03:45:27.324Z,5.90
2022-10-16T03:47:53.998Z,4.97
2022-10-16T03:50:20.856Z,3.53
2022-10-16T03:52:47.683Z,3.35
2022-10-16T03:55:14.546Z,4.82
2022-10-16T03:57:41.304Z,4.03
2022-10-16T04:00:08.729Z,4.72
2022-10-16T04:02:35.525Z,4.97
2022-10-16T04:05:02.446Z,5.55
2022-10-16T04:07:29.807Z,4.57
2022-10-16T04:09:58.256Z,3.92
2022-10-16T04:12:25.074Z,4.80
2022-10-16T04:14:51.829Z,7.18
2022-10-16T04:17:18.676Z,13.02
2022-10-16T04:19:45.442Z,26.42
2022-10-16T04:22:12.239Z,6.43
2022-10-16T04:24:39.264Z,3.53
2022-10-16T04:27:05.964Z,3.92
2022-10-16T04:29:32.702Z,3.63
2022-10-16T04:31:59.434Z,45.00
2022-10-16T04:34:26.144Z,5.97
2022-10-16T04:36:52.875Z,4.97
2022-10-16T04:39:19.663Z,3.60
2022-10-16T04:41:46.800Z,4.18
2022-10-16T04:44:13.525Z,2.90
2022-10-16T04:46:40.224Z,3.83
2022-10-16T04:49:07.105Z,2.63
2022-10-16T04:51:34.044Z,2.55
2022-10-16T04:54:00.776Z,2.83
2022-10-16T04:56:27.504Z,2.67
2022-10-16T04:58:54.354Z,4.30
2022-10-16T05:01:21.154Z,1.50
2022-10-16T05:03:47.849Z,6.30
2022-10-16T05:06:14.677Z,2.33
2022-10-16T05:08:41.474Z,2.22
2022-10-16T05:11:08.289Z,2.42
2022-10-16T05:13:36.128Z,2.30
2022-10-16T05:16:02.807Z,2.67
2022-10-16T05:18:29.522Z,3.15
2022-10-16T05:20:56.291Z,2.90
2022-10-16T05:23:22.980Z,2.72
2022-10-16T05:25:59.386Z,4.43
2022-10-16T05:28:31.457Z,3.22
2022-10-16T05:30:58.676Z,2.50
2022-10-16T05:33:26.746Z,1.95
2022-10-16T05:35:53.473Z,3.88
2022-10-16T05:38:20.238Z,2.53
2022-10-16T05:40:57.363Z,2.88
2022-10-16T05:43:24.268Z,3.55
2022-10-16T05:45:59.013Z,9.77
2022-10-16T05:48:26.539Z,4.35
2022-10-16T05:51:05.717Z,5.07
2022-10-16T05:53:35.437Z,25.58
2022-10-16T05:56:03.276Z,21.15
2022-10-16T05:58:32.527Z,4.63
2022-10-16T06:01:01.680Z,22.20
2022-10-16T06:03:29.045Z,59.20
2022-10-16T06:05:55.923Z,3.45
2022-10-16T06:08:23.998Z,3.70
2022-10-16T06:11:01.819Z,29.63
2022-10-16T06:13:28.585Z,9.05
2022-10-16T06:15:59.492Z,5.07
2022-10-16T06:18:27.196Z,64.80
2022-10-16T06:20:54.871Z,72.97
2022-10-16T06:23:21.585Z,31.63
2022-10-16T06:25:49.405Z,7.57
2022-10-16T06:28:16.994Z,7.70
2022-10-16T06:30:46.927Z,7.53
2022-10-16T06:35:40.347Z,7.88
2022-10-16T06:38:07.308Z,65.93
2022-10-16T06:40:34.141Z,19.33
2022-10-16T06:43:00.841Z,9.85
2022-10-16T06:45:27.627Z,10.38
2022-10-16T06:47:54.374Z,36.25
2022-10-16T06:50:21.112Z,13.80
2022-10-16T06:52:48.998Z,221.77
2022-10-16T06:55:16.369Z,212.77
2022-10-16T06:57:43.077Z,10.40
2022-10-16T07:00:10.167Z,15.85
2022-10-16T07:02:36.867Z,47.08
2022-10-16T07:05:03.881Z,15.15
2022-10-16T07:07:30.643Z,10.20
2022-10-16T07:09:57.331Z,13.18
2022-10-16T07:12:24.330Z,9.70
2022-10-16T07:14:53.381Z,8.43
2022-10-16T07:17:20.115Z,22.42
2022-10-16T07:19:46.844Z,57.17
2022-10-16T07:22:13.496Z,11.38
2022-10-16T07:24:49.162Z,6.63
2022-10-16T07:27:25.078Z,7.90
2022-10-16T07:29:51.885Z,6.95
2022-10-16T07:32:19.812Z,7.30
2022-10-16T07:34:56.972Z,9.52
2022-10-16T07:37:23.976Z,29.73
2022-10-16T07:40:01.951Z,7.43
2022-10-16T07:42:37.841Z,8.10
2022-10-16T07:45:04.985Z,6.97
2022-10-16T07:47:31.738Z,6.82
2022-10-16T07:49:58.445Z,7.22
2022-10-16T07:52:31.425Z,8.10
2022-10-16T07:54:58.092Z,7.82
2022-10-16T07:57:25.142Z,8.27
2022-10-16T08:00:00.009Z,10.48
2022-10-16T08:02:26.707Z,12.38
2022-10-16T08:04:53.366Z,8.07
2022-10-16T08:07:20.402Z,6.35
2022-10-16T08:09:51.084Z,8.65
2022-10-16T08:12:17.849Z,4.65
2022-10-16T08:14:47.065Z,6.50
2022-10-16T08:17:15.655Z,10.15
2022-10-16T08:19:46.259Z,10.35
2022-10-16T08:24:41.065Z,7.57
2022-10-16T08:27:10.485Z,5.18
2022-10-16T08:29:37.424Z,5.43
2022-10-16T08:32:05.226Z,4.25
2022-10-16T08:34:32.029Z,4.00
2022-10-16T08:36:58.846Z,3.75
2022-10-16T08:39:27.030Z,6.18
2022-10-16T08:42:10.834Z,3.17
2022-10-16T08:44:46.786Z,5.93
2022-10-16T08:47:25.238Z,5.68
2022-10-16T08:49:55.001Z,3.03
2022-10-16T08:54:53.001Z,6.43
2022-10-16T08:57:25.253Z,4.68
2022-10-16T08:59:53.648Z,4.72
2022-10-16T09:02:38.756Z,6.60
2022-10-16T09:05:39.378Z,2.60
2022-10-16T09:08:21.257Z,4.55
2022-10-16T09:11:05.852Z,2.30
2022-10-16T09:14:13.898Z,3.85
2022-10-16T09:16:51.409Z,2.30
2022-10-16T09:19:46.539Z,2.10
2022-10-16T09:22:18.281Z,2.75
2022-10-16T09:24:51.530Z,2.92
2022-10-16T09:27:19.001Z,2.25
2022-10-16T09:29:45.881Z,2.60
2022-10-16T09:32:20.432Z,4.10
2022-10-16T09:34:51.967Z,1.55
2022-10-16T09:37:22.442Z,1.80
2022-10-16T09:39:52.094Z,20.17
2022-10-16T09:42:26.738Z,2.17
2022-10-16T09:44:54.844Z,1.85
2022-10-16T09:47:27.448Z,3.28
2022-10-16T09:50:02.528Z,4.55
2022-10-16T09:52:31.164Z,2.63
2022-10-16T09:55:00.440Z,1.73
2022-10-16T09:57:28.042Z,1.52
2022-10-16T09:59:59.837Z,2.97
2022-10-16T10:02:37.975Z,8.63
2022-10-16T10:05:18.175Z,3.95
2022-10-16T10:07:48.674Z,4.63
2022-10-16T10:10:28.108Z,3.08
2022-10-16T10:12:56.472Z,1.77
2022-10-16T10:15:35.820Z,1.95
2022-10-16T10:18:04.400Z,1.70
2022-10-16T10:20:39.926Z,3.30
2022-10-16T10:23:24.180Z,4.97
2022-10-16T10:26:06.303Z,4.90
2022-10-16T10:28:51.809Z,2.13
2022-10-16T10:31:27.880Z,3.65
2022-10-16T10:34:07.171Z,4.28
2022-10-16T10:36:38.718Z,2.65
2022-10-16T10:39:08.380Z,8.40
2022-10-16T10:44:22.540Z,4.60
2022-10-16T10:47:02.742Z,3.22
2022-10-16T10:49:43.286Z,6.10
2022-10-16T10:52:23.660Z,6.75
2022-10-16T10:55:21.686Z,2.65
2022-10-16T10:58:10.044Z,3.50
2022-10-16T11:00:48.834Z,4.90
2022-10-16T11:03:48.811Z,13.60
2022-10-16T11:06:28.149Z,4.35
2022-10-16T11:09:16.670Z,10.98
2022-10-16T11:11:54.019Z,4.05
2022-10-16T11:14:30.424Z,4.60
2022-10-16T11:17:13.706Z,6.63
2022-10-16T11:19:52.352Z,5.30
2022-10-16T11:22:30.973Z,9.02
2022-10-16T11:25:29.264Z,13.60
2022-10-16T11:28:14.373Z,5.30
2022-10-16T11:30:48.408Z,6.78
2022-10-16T11:33:32.819Z,6.03
2022-10-16T11:36:02.140Z,6.47
2022-10-16T11:38:43.858Z,4.97
2022-10-16T11:41:33.376Z,5.53
2022-10-16T11:44:18.610Z,6.45
2022-10-16T11:46:59.416Z,6.45
2022-10-16T11:49:38.857Z,10.35
2022-10-16T11:52:17.677Z,7.22
2022-10-16T11:55:10.435Z,6.10
2022-10-16T11:57:52.292Z,6.07
2022-10-16T12:00:40.041Z,9.55
2022-10-16T12:03:50.613Z,2.75
2022-10-16T12:06:47.427Z,7.75
2022-10-16T12:09:28.685Z,4.82
2022-10-16T12:11:56.806Z,5.78
2022-10-16T12:14:42.921Z,8.90
2022-10-16T12:17:42.933Z,7.20
2022-10-16T12:20:28.801Z,12.63
2022-10-16T12:23:03.502Z,9.98
2022-10-16T12:25:33.740Z,16.05
2022-10-16T12:28:18.870Z,7.45
2022-10-16T12:30:54.836Z,10.95
2022-10-16T12:33:31.348Z,6.05
2022-10-16T12:36:00.897Z,7.57
2022-10-16T12:38:46.585Z,9.68
2022-10-16T12:41:28.939Z,7.18
2022-10-16T12:43:56.816Z,8.07
2022-10-16T12:47:07.401Z,9.25
2022-10-16T12:49:39.753Z,12.23
2022-10-16T12:52:29.436Z,10.07
2022-10-16T12:55:01.833Z,9.50
2022-10-16T12:57:36.889Z,5.97
2022-10-16T13:00:27.236Z,7.85
2022-10-16T13:03:31.719Z,8.18
2022-10-16T13:06:23.481Z,8.02
2022-10-16T13:09:29.017Z,8.52
2022-10-16T13:12:11.456Z,10.95
2022-10-16T13:15:13.369Z,7.25
2022-10-16T13:18:23.933Z,8.45
2022-10-16T13:20:53.774Z,6.50
2022-10-16T13:23:32.661Z,6.85
2022-10-16T13:26:21.371Z,9.00
2022-10-16T13:28:48.233Z,11.77
2022-10-16T13:31:27.234Z,6.45
2022-10-16T13:33:57.000Z,7.80
2022-10-16T13:36:26.753Z,9.93
2022-10-16T13:39:13.121Z,10.52
2022-10-16T13:41:40.114Z,7.53
2022-10-16T13:44:21.156Z,11.05
2022-10-16T13:46:48.036Z,12.48
2022-10-16T13:49:17.750Z,10.95
2022-10-16T13:51:58.716Z,11.40
2022-10-16T13:54:27.009Z,8.85
2022-10-16T13:57:03.464Z,10.43
2022-10-16T13:59:39.684Z,8.85
2022-10-16T14:02:21.347Z,7.15
2022-10-16T14:04:49.600Z,8.48
2022-10-16T14:07:26.360Z,8.63
2022-10-16T14:09:54.427Z,10.43
2022-10-16T14:12:29.276Z,10.13
2022-10-16T14:15:01.044Z,8.95
2022-10-16T14:17:34.065Z,8.38
2022-10-16T14:20:07.687Z,9.10
2022-10-16T14:22:42.830Z,10.07
2022-10-16T14:25:21.747Z,11.68
2022-10-16T14:28:20.126Z,11.32
2022-10-16T14:30:58.386Z,14.93
2022-10-16T14:33:30.184Z,11.18
2022-10-16T14:36:04.870Z,13.48
2022-10-16T14:38:33.501Z,17.83
2022-10-16T14:41:01.654Z,16.42
2022-10-16T14:43:47.486Z,19.42
2022-10-16T14:51:19.047Z,21.65
2022-10-16T14:53:46.549Z,22.67
2022-10-16T14:56:20.761Z,23.48
2022-10-16T14:58:47.699Z,26.40
2022-10-16T15:01:14.646Z,21.52
2022-10-16T15:03:41.854Z,16.10
2022-10-16T15:06:16.711Z,19.08
2022-10-16T15:08:43.662Z,19.63
2022-10-16T15:11:16.659Z,16.05
2022-10-16T15:13:44.132Z,23.48
2022-10-16T15:16:17.210Z,23.95
2022-10-16T15:18:44.593Z,25.48
2022-10-16T15:21:30.184Z,23.90
2022-10-16T15:24:00.132Z,20.23
2022-10-16T15:26:29.159Z,22.33
2022-10-16T15:28:56.679Z,21.45
2022-10-16T15:31:24.949Z,28.55
2022-10-16T15:33:59.410Z,24.20
2022-10-16T15:36:28.513Z,29.27
2022-10-16T15:38:56.394Z,26.50
2022-10-16T15:41:24.672Z,29.08
2022-10-16T15:43:51.979Z,33.13
2022-10-16T15:46:21.845Z,29.02
2022-10-16T15:48:57.274Z,36.35
2022-10-16T15:51:33.522Z,36.03
2022-10-16T15:54:02.985Z,33.45
2022-10-16T15:56:31.866Z,36.30
2022-10-16T15:59:00.043Z,35.33
2022-10-16T16:01:28.078Z,38.35
2022-10-16T16:06:40.505Z,44.05
2022-10-16T16:09:07.459Z,38.03
2022-10-16T16:11:38.996Z,34.72
2022-10-16T16:14:16.891Z,34.35
2022-10-16T16:16:44.017Z,39.08
2022-10-16T16:19:12.311Z,36.45
2022-10-16T16:21:39.764Z,38.72
2022-10-16T16:24:11.286Z,32.97
2022-10-16T16:26:46.967Z,37.22
2022-10-16T16:29:18.218Z,43.55
2022-10-16T16:31:50.362Z,51.72
2022-10-16T16:34:17.393Z,52.90
2022-10-16T16:36:47.605Z,56.88
2022-10-16T16:39:15.729Z,48.50
2022-10-16T16:41:42.708Z,44.45
2022-10-16T16:44:12.135Z,38.72
2022-10-16T16:46:40.895Z,40.72
2022-10-16T16:49:13.230Z,44.53
2022-10-16T16:51:41.418Z,51.75
2022-10-16T16:54:09.493Z,47.05
2022-10-16T16:56:39.342Z,50.55
2022-10-16T16:59:06.841Z,42.80
2022-10-16T17:01:34.330Z,38.95
2022-10-16T17:04:06.744Z,41.58
2022-10-16T17:06:41.891Z,41.78
2022-10-16T17:09:11.381Z,49.63
2022-10-16T17:11:38.781Z,42.60
2022-10-16T17:14:10.334Z,42.97
2022-10-16T17:16:49.476Z,48.00
2022-10-16T17:19:24.052Z,39.75
2022-10-16T17:21:55.031Z,58.35
2022-10-16T17:24:23.137Z,63.70
2022-10-16T17:26:51.621Z,42.60
2022-10-16T17:29:19.791Z,50.03
2022-10-16T17:31:50.837Z,60.95
2022-10-16T17:34:19.549Z,48.60
2022-10-16T17:36:51.683Z,49.85
2022-10-16T17:39:26.749Z,57.72
2022-10-16T17:41:58.796Z,52.80
2022-10-16T17:44:29.143Z,50.83
2022-10-16T17:46:58.425Z,49.40
2022-10-16T17:49:26.889Z,46.47
2022-10-16T17:51:58.343Z,40.38
2022-10-16T17:54:29.795Z,47.95
2022-10-16T17:57:00.345Z,41.05
2022-10-16T17:59:30.684Z,33.30
2022-10-16T18:02:00.436Z,38.53
2022-10-16T18:04:33.803Z,36.13
2022-10-16T18:07:02.751Z,41.58
2022-10-16T18:09:42.540Z,42.58
2022-10-16T18:12:25.236Z,46.65
2022-10-16T18:14:59.889Z,48.60
2022-10-16T18:17:29.394Z,49.80
2022-10-16T18:19:57.154Z,52.00
2022-10-16T18:22:25.880Z,47.85
2022-10-16T18:24:55.282Z,48.30
2022-10-16T18:27:23.325Z,42.78
2022-10-16T18:29:57.742Z,41.20
2022-10-16T18:32:29.387Z,43.10
2022-10-16T18:34:58.165Z,35.33
2022-10-16T18:37:26.326Z,26.88
2022-10-16T18:39:55.895Z,27.58
2022-10-16T18:42:24.273Z,28.40
2022-10-16T18:44:52.803Z,39.20
2022-10-16T18:47:20.963Z,45.47
2022-10-16T18:49:51.756Z,62.67
2022-10-16T18:52:19.284Z,50.67
2022-10-16T18:54:47.015Z,37.50
2022-10-16T18:57:15.724Z,34.20
2022-10-16T18:59:44.105Z,30.98
2022-10-16T19:02:21.790Z,31.52
2022-10-16T19:04:50.179Z,35.88
2022-10-16T19:07:19.016Z,44.20
2022-10-16T19:09:47.290Z,36.60
2022-10-16T19:12:16.191Z,41.63
2022-10-16T19:14:49.616Z,60.40
2022-10-16T19:17:22.156Z,80.85
2022-10-16T19:19:52.956Z,60.70
2022-10-16T19:22:33.200Z,68.20
2022-10-16T19:25:04.325Z,68.90
2022-10-16T19:27:34.311Z,78.45
2022-10-16T19:32:33.076Z,75.72
2022-10-16T19:35:06.207Z,67.10
2022-10-16T19:37:34.676Z,101.18
2022-10-16T19:40:02.890Z,81.80
2022-10-16T19:42:31.712Z,45.97
2022-10-16T19:45:02.590Z,43.95
2022-10-16T19:47:31.536Z,50.17
2022-10-16T19:50:00.261Z,47.22
2022-10-16T19:52:37.143Z,60.33
2022-10-16T19:55:07.306Z,83.28
2022-10-16T19:57:36.923Z,74.80
2022-10-16T20:00:08.294Z,64.93
2022-10-16T20:02:37.241Z,56.38
2022-10-16T20:05:05.373Z,52.22
2022-10-16T20:07:34.805Z,101.68
2022-10-16T20:10:02.336Z,83.72
2022-10-16T20:12:29.660Z,148.98
2022-10-16T20:14:57.587Z,163.75
2022-10-16T20:17:26.029Z,65.53
2022-10-16T20:19:53.848Z,107.30
2022-10-16T20:22:21.700Z,65.32
2022-10-16T20:24:49.197Z,56.20
2022-10-16T20:27:16.506Z,49.65
2022-10-16T20:29:43.648Z,62.13
2022-10-16T20:32:10.888Z,63.08
2022-10-16T20:37:05.712Z,54.15
2022-10-16T20:39:32.741Z,53.67
2022-10-16T20:41:59.622Z,52.97
2022-10-16T20:44:26.462Z,63.15
2022-10-16T20:46:57.279Z,57.97
2022-10-16T20:49:39.432Z,67.07
2022-10-16T20:52:07.174Z,69.97
2022-10-16T20:54:34.181Z,73.43
2022-10-16T20:57:01.059Z,54.50
2022-10-16T20:59:27.915Z,68.47
2022-10-16T21:01:54.770Z,78.47
2022-10-16T21:04:21.554Z,57.85
2022-10-16T21:06:50.986Z,54.10
2022-10-16T21:09:18.219Z,49.08
2022-10-16T21:11:45.038Z,45.03
2022-10-16T21:14:11.864Z,48.47
2022-10-16T21:16:38.671Z,54.88
2022-10-16T21:19:06.635Z,55.60
2022-10-16T21:21:36.164Z,60.55
2022-10-16T21:24:03.007Z,66.05
2022-10-16T21:26:30.569Z,67.78
2022-10-16T21:29:07.576Z,57.15
2022-10-16T21:31:35.925Z,52.03
2022-10-16T21:34:03.142Z,48.30
2022-10-16T21:36:35.774Z,54.10
2022-10-16T21:39:09.110Z,47.28
2022-10-16T21:41:36.957Z,46.53
2022-10-16T21:44:04.639Z,55.65
2022-10-16T21:46:34.362Z,46.80
2022-10-16T21:49:03.288Z,42.17
2022-10-16T21:51:33.974Z,44.05
2022-10-16T21:54:01.848Z,42.22
2022-10-16T21:56:28.869Z,50.22
2022-10-16T21:58:55.902Z,58.45
2022-10-16T22:01:24.895Z,52.25
2022-10-16T22:03:52.054Z,51.10
2022-10-16T22:08:52.092Z,41.78
2022-10-16T22:11:23.848Z,37.28
2022-10-16T22:13:54.267Z,41.08
2022-10-16T22:16:25.683Z,37.72
2022-10-16T22:18:54.421Z,35.25
2022-10-16T22:21:21.573Z,36.72
2022-10-16T22:23:48.414Z,41.88
2022-10-16T22:26:15.523Z,38.72
2022-10-16T22:28:43.077Z,35.88
2022-10-16T22:31:12.102Z,39.95
2022-10-16T22:33:39.113Z,36.93
2022-10-16T22:36:08.933Z,31.63
2022-10-16T22:38:36.976Z,29.55
2022-10-16T22:41:06.923Z,35.90
2022-10-16T22:46:06.159Z,34.85
2022-10-16T22:48:32.815Z,33.75
2022-10-16T22:50:59.767Z,33.05
2022-10-16T22:53:26.606Z,32.47
2022-10-16T22:55:53.557Z,33.78
2022-10-16T22:58:20.306Z,34.90
2022-10-16T23:03:34.383Z,32.35
2022-10-16T23:06:04.030Z,33.28
2022-10-16T23:08:30.744Z,34.28
2022-10-16T23:11:01.031Z,32.00
2022-10-16T23:13:28.477Z,34.50
2022-10-16T23:15:55.230Z,36.88
2022-10-16T23:18:22.003Z,34.72
2022-10-16T23:20:48.747Z,35.08
2022-10-16T23:23:15.387Z,36.78
2022-10-16T23:25:47.147Z,33.42
2022-10-16T23:30:47.059Z,33.28
2022-10-16T23:33:13.820Z,33.67
2022-10-16T23:35:41.201Z,33.13
2022-10-16T23:38:07.962Z,30.98
2022-10-16T23:40:34.694Z,37.28
2022-10-16T23:43:01.584Z,37.05
2022-10-16T23:45:28.285Z,41.03
2022-10-16T23:47:55.067Z,37.17
2022-10-16T23:50:21.772Z,37.55
2022-10-16T23:52:48.475Z,135.43
2022-10-16T23:55:15.234Z,44.78
2022-10-16T23:57:41.913Z,42.63
